sensor_id;sensor_type;location;lat;lon;timestamp;temperature;humidity
12130;DHT22;6128;59.340;18.040;2023-07-20T00:02:03;15.10;99.90
12130;DHT22;6128;59.340;18.040;2023-07-20T00:04:31;15.10;99.90
12130;DHT22;6128;59.340;18.040;2023-07-20T00:06:58;15.10;99.90
12130;DHT22;6128;59.340;18.040;2023-07-20T00:09:27;15.00;99.90
12130;DHT22;6128;59.340;18.040;2023-07-20T00:11:55;15.00;99.90
12130;DHT22;6128;59.340;18.040;2023-07-20T00:14:22;15.00;99.90
12130;DHT22;6128;59.340;18.040;2023-07-20T00:16:50;14.90;99.90
12130;DHT22;6128;59.340;18.040;2023-07-20T00:19:21;14.90;99.90
12130;DHT22;6128;59.340;18.040;2023-07-20T00:21:48;14.90;99.90
12130;DHT22;6128;59.340;18.040;2023-07-20T00:24:15;14.80;99.90
12130;DHT22;6128;59.340;18.040;2023-07-20T00:26:44;14.80;99.90
12130;DHT22;6128;59.340;18.040;2023-07-20T00:29:11;14.80;99.90
12130;DHT22;6128;59.340;18.040;2023-07-20T00:31:38;14.70;99.90
12130;DHT22;6128;59.340;18.040;2023-07-20T00:34:05;14.70;99.90
12130;DHT22;6128;59.340;18.040;2023-07-20T00:36:32;14.60;99.90
12130;DHT22;6128;59.340;18.040;2023-07-20T00:39:00;14.60;99.90
12130;DHT22;6128;59.340;18.040;2023-07-20T00:41:27;14.60;99.90
12130;DHT22;6128;59.340;18.040;2023-07-20T00:43:56;14.60;99.90
12130;DHT22;6128;59.340;18.040;2023-07-20T00:46:23;14.50;99.90
12130;DHT22;6128;59.340;18.040;2023-07-20T00:48:51;14.50;99.90
12130;DHT22;6128;59.340;18.040;2023-07-20T00:51:20;14.50;99.90
12130;DHT22;6128;59.340;18.040;2023-07-20T00:53:47;14.40;99.90
12130;DHT22;6128;59.340;18.040;2023-07-20T00:56:15;14.40;99.90
12130;DHT22;6128;59.340;18.040;2023-07-20T00:58:42;14.40;99.90
12130;DHT22;6128;59.340;18.040;2023-07-20T01:01:11;14.30;99.90
12130;DHT22;6128;59.340;18.040;2023-07-20T01:03:38;14.30;99.90
12130;DHT22;6128;59.340;18.040;2023-07-20T01:06:12;14.30;99.90
12130;DHT22;6128;59.340;18.040;2023-07-20T01:08:47;14.30;99.90
12130;DHT22;6128;59.340;18.040;2023-07-20T01:11:26;14.30;99.90
12130;DHT22;6128;59.340;18.040;2023-07-20T01:13:55;14.20;99.90
12130;DHT22;6128;59.340;18.040;2023-07-20T01:16:24;14.20;99.90
12130;DHT22;6128;59.340;18.040;2023-07-20T01:18:51;14.20;99.90
12130;DHT22;6128;59.340;18.040;2023-07-20T01:21:22;14.20;99.90
12130;DHT22;6128;59.340;18.040;2023-07-20T01:24:17;14.20;99.90
12130;DHT22;6128;59.340;18.040;2023-07-20T01:27:23;14.10;99.90
12130;DHT22;6128;59.340;18.040;2023-07-20T01:30:08;14.20;99.90
12130;DHT22;6128;59.340;18.040;2023-07-20T01:32:42;14.20;99.90
12130;DHT22;6128;59.340;18.040;2023-07-20T01:35:11;14.10;99.90
12130;DHT22;6128;59.340;18.040;2023-07-20T01:37:41;14.10;99.90
12130;DHT22;6128;59.340;18.040;2023-07-20T01:40:11;14.10;99.90
12130;DHT22;6128;59.340;18.040;2023-07-20T01:42:44;14.10;99.90
12130;DHT22;6128;59.340;18.040;2023-07-20T01:45:11;14.10;99.90
12130;DHT22;6128;59.340;18.040;2023-07-20T01:47:38;14.10;99.90
12130;DHT22;6128;59.340;18.040;2023-07-20T01:50:08;14.00;99.90
12130;DHT22;6128;59.340;18.040;2023-07-20T01:52:35;14.10;99.90
12130;DHT22;6128;59.340;18.040;2023-07-20T01:55:02;14.00;99.90
12130;DHT22;6128;59.340;18.040;2023-07-20T01:57:30;14.00;99.90
12130;DHT22;6128;59.340;18.040;2023-07-20T01:59:57;14.00;99.90
12130;DHT22;6128;59.340;18.040;2023-07-20T02:02:26;14.00;99.90
12130;DHT22;6128;59.340;18.040;2023-07-20T02:04:54;14.00;99.90
12130;DHT22;6128;59.340;18.040;2023-07-20T02:07:22;14.00;99.90
12130;DHT22;6128;59.340;18.040;2023-07-20T02:09:50;14.00;99.90
12130;DHT22;6128;59.340;18.040;2023-07-20T02:12:17;14.00;99.90
12130;DHT22;6128;59.340;18.040;2023-07-20T02:14:44;14.00;99.90
12130;DHT22;6128;59.340;18.040;2023-07-20T02:17:11;14.00;99.90
12130;DHT22;6128;59.340;18.040;2023-07-20T02:19:40;14.00;99.90
12130;DHT22;6128;59.340;18.040;2023-07-20T02:22:10;14.00;99.90
12130;DHT22;6128;59.340;18.040;2023-07-20T02:24:38;14.00;99.90
12130;DHT22;6128;59.340;18.040;2023-07-20T02:27:06;13.90;99.90
12130;DHT22;6128;59.340;18.040;2023-07-20T02:29:33;14.00;99.90
12130;DHT22;6128;59.340;18.040;2023-07-20T02:32:01;13.90;99.90
12130;DHT22;6128;59.340;18.040;2023-07-20T02:34:28;13.90;99.90
12130;DHT22;6128;59.340;18.040;2023-07-20T02:36:55;13.90;99.90
12130;DHT22;6128;59.340;18.040;2023-07-20T02:39:23;13.90;99.90
12130;DHT22;6128;59.340;18.040;2023-07-20T02:41:52;13.90;99.90
12130;DHT22;6128;59.340;18.040;2023-07-20T02:44:19;13.90;99.90
12130;DHT22;6128;59.340;18.040;2023-07-20T02:46:46;13.90;99.90
12130;DHT22;6128;59.340;18.040;2023-07-20T02:49:15;13.90;99.90
12130;DHT22;6128;59.340;18.040;2023-07-20T02:51:42;13.90;99.90
12130;DHT22;6128;59.340;18.040;2023-07-20T02:54:09;13.90;99.90
12130;DHT22;6128;59.340;18.040;2023-07-20T02:56:37;13.80;99.90
12130;DHT22;6128;59.340;18.040;2023-07-20T02:59:05;13.90;99.90
12130;DHT22;6128;59.340;18.040;2023-07-20T03:01:32;13.90;99.90
12130;DHT22;6128;59.340;18.040;2023-07-20T03:03:59;13.90;99.90
12130;DHT22;6128;59.340;18.040;2023-07-20T03:06:26;13.90;99.90
12130;DHT22;6128;59.340;18.040;2023-07-20T03:08:53;13.90;99.90
12130;DHT22;6128;59.340;18.040;2023-07-20T03:11:21;13.90;99.90
12130;DHT22;6128;59.340;18.040;2023-07-20T03:13:48;13.90;99.90
12130;DHT22;6128;59.340;18.040;2023-07-20T03:16:18;13.90;99.90
12130;DHT22;6128;59.340;18.040;2023-07-20T03:18:46;13.90;99.90
12130;DHT22;6128;59.340;18.040;2023-07-20T03:21:13;14.00;99.90
12130;DHT22;6128;59.340;18.040;2023-07-20T03:23:41;13.90;99.90
12130;DHT22;6128;59.340;18.040;2023-07-20T03:26:08;13.90;99.90
12130;DHT22;6128;59.340;18.040;2023-07-20T03:28:36;13.90;99.90
12130;DHT22;6128;59.340;18.040;2023-07-20T03:31:03;14.00;99.90
12130;DHT22;6128;59.340;18.040;2023-07-20T03:33:32;14.00;99.90
12130;DHT22;6128;59.340;18.040;2023-07-20T03:35:59;14.00;99.90
12130;DHT22;6128;59.340;18.040;2023-07-20T03:38:27;14.00;99.90
12130;DHT22;6128;59.340;18.040;2023-07-20T03:40:55;14.00;99.90
12130;DHT22;6128;59.340;18.040;2023-07-20T03:43:23;14.00;99.90
12130;DHT22;6128;59.340;18.040;2023-07-20T03:45:51;14.10;99.90
12130;DHT22;6128;59.340;18.040;2023-07-20T03:48:19;14.10;99.90
12130;DHT22;6128;59.340;18.040;2023-07-20T03:50:50;14.10;99.90
12130;DHT22;6128;59.340;18.040;2023-07-20T03:53:17;14.10;99.90
12130;DHT22;6128;59.340;18.040;2023-07-20T03:55:45;14.10;99.90
12130;DHT22;6128;59.340;18.040;2023-07-20T03:58:13;14.10;99.90
12130;DHT22;6128;59.340;18.040;2023-07-20T04:00:43;14.10;99.90
12130;DHT22;6128;59.340;18.040;2023-07-20T04:03:10;14.10;99.90
12130;DHT22;6128;59.340;18.040;2023-07-20T04:05:37;14.20;99.90
12130;DHT22;6128;59.340;18.040;2023-07-20T04:08:05;14.20;99.90
12130;DHT22;6128;59.340;18.040;2023-07-20T04:10:33;14.20;99.90
12130;DHT22;6128;59.340;18.040;2023-07-20T04:13:00;14.20;99.90
12130;DHT22;6128;59.340;18.040;2023-07-20T04:15:27;14.30;99.90
12130;DHT22;6128;59.340;18.040;2023-07-20T04:17:54;14.30;99.90
12130;DHT22;6128;59.340;18.040;2023-07-20T04:20:22;14.30;99.90
12130;DHT22;6128;59.340;18.040;2023-07-20T04:22:49;14.30;99.90
12130;DHT22;6128;59.340;18.040;2023-07-20T04:25:18;14.30;99.90
12130;DHT22;6128;59.340;18.040;2023-07-20T04:27:45;14.30;99.90
12130;DHT22;6128;59.340;18.040;2023-07-20T04:30:13;14.30;99.90
12130;DHT22;6128;59.340;18.040;2023-07-20T04:32:41;14.40;99.90
12130;DHT22;6128;59.340;18.040;2023-07-20T04:35:10;14.40;99.90
12130;DHT22;6128;59.340;18.040;2023-07-20T04:37:37;14.40;99.90
12130;DHT22;6128;59.340;18.040;2023-07-20T04:40:05;14.40;99.90
12130;DHT22;6128;59.340;18.040;2023-07-20T04:42:35;14.40;99.90
12130;DHT22;6128;59.340;18.040;2023-07-20T04:45:04;14.40;99.90
12130;DHT22;6128;59.340;18.040;2023-07-20T04:47:31;14.40;99.90
12130;DHT22;6128;59.340;18.040;2023-07-20T04:49:58;14.40;99.90
12130;DHT22;6128;59.340;18.040;2023-07-20T04:52:25;14.50;99.90
12130;DHT22;6128;59.340;18.040;2023-07-20T04:54:52;14.60;99.90
12130;DHT22;6128;59.340;18.040;2023-07-20T04:57:19;14.60;99.90
12130;DHT22;6128;59.340;18.040;2023-07-20T04:59:52;14.70;99.90
12130;DHT22;6128;59.340;18.040;2023-07-20T05:02:19;14.80;99.90
12130;DHT22;6128;59.340;18.040;2023-07-20T05:04:46;14.80;99.90
12130;DHT22;6128;59.340;18.040;2023-07-20T05:07:13;14.80;99.90
12130;DHT22;6128;59.340;18.040;2023-07-20T05:09:43;14.90;99.90
12130;DHT22;6128;59.340;18.040;2023-07-20T05:12:12;14.90;99.90
12130;DHT22;6128;59.340;18.040;2023-07-20T05:14:39;14.90;99.90
12130;DHT22;6128;59.340;18.040;2023-07-20T05:17:09;14.90;99.90
12130;DHT22;6128;59.340;18.040;2023-07-20T05:19:36;15.00;99.90
12130;DHT22;6128;59.340;18.040;2023-07-20T05:22:03;15.00;99.90
12130;DHT22;6128;59.340;18.040;2023-07-20T05:24:31;15.10;99.90
12130;DHT22;6128;59.340;18.040;2023-07-20T05:26:58;15.10;99.90
12130;DHT22;6128;59.340;18.040;2023-07-20T05:29:25;15.10;99.90
12130;DHT22;6128;59.340;18.040;2023-07-20T05:31:52;15.10;99.90
12130;DHT22;6128;59.340;18.040;2023-07-20T05:34:21;15.10;99.90
12130;DHT22;6128;59.340;18.040;2023-07-20T05:36:48;15.20;99.90
12130;DHT22;6128;59.340;18.040;2023-07-20T05:39:16;15.20;99.90
12130;DHT22;6128;59.340;18.040;2023-07-20T05:41:44;15.40;99.90
12130;DHT22;6128;59.340;18.040;2023-07-20T05:44:11;15.50;99.90
12130;DHT22;6128;59.340;18.040;2023-07-20T05:46:38;15.60;99.90
12130;DHT22;6128;59.340;18.040;2023-07-20T05:49:05;15.70;99.90
12130;DHT22;6128;59.340;18.040;2023-07-20T05:51:33;15.70;99.90
12130;DHT22;6128;59.340;18.040;2023-07-20T05:54:01;15.80;99.90
12130;DHT22;6128;59.340;18.040;2023-07-20T05:56:28;15.90;99.90
12130;DHT22;6128;59.340;18.040;2023-07-20T05:58:55;16.00;99.90
12130;DHT22;6128;59.340;18.040;2023-07-20T06:01:22;16.20;99.90
12130;DHT22;6128;59.340;18.040;2023-07-20T06:03:52;16.40;99.90
12130;DHT22;6128;59.340;18.040;2023-07-20T06:06:20;16.70;99.90
12130;DHT22;6128;59.340;18.040;2023-07-20T06:08:48;17.00;99.90
12130;DHT22;6128;59.340;18.040;2023-07-20T06:11:15;17.80;99.90
12130;DHT22;6128;59.340;18.040;2023-07-20T06:13:43;19.20;99.90
12130;DHT22;6128;59.340;18.040;2023-07-20T06:16:10;20.20;99.90
12130;DHT22;6128;59.340;18.040;2023-07-20T06:18:37;21.40;99.90
12130;DHT22;6128;59.340;18.040;2023-07-20T06:21:04;22.30;99.90
12130;DHT22;6128;59.340;18.040;2023-07-20T06:23:31;23.30;99.90
12130;DHT22;6128;59.340;18.040;2023-07-20T06:26:00;24.10;99.90
12130;DHT22;6128;59.340;18.040;2023-07-20T06:28:27;24.90;99.90
12130;DHT22;6128;59.340;18.040;2023-07-20T06:30:59;25.40;99.90
12130;DHT22;6128;59.340;18.040;2023-07-20T06:33:27;26.30;99.90
12130;DHT22;6128;59.340;18.040;2023-07-20T06:35:54;27.00;99.90
12130;DHT22;6128;59.340;18.040;2023-07-20T06:38:22;27.60;99.90
12130;DHT22;6128;59.340;18.040;2023-07-20T06:40:50;27.80;99.90
12130;DHT22;6128;59.340;18.040;2023-07-20T06:43:19;27.40;99.90
12130;DHT22;6128;59.340;18.040;2023-07-20T06:45:51;27.60;99.90
12130;DHT22;6128;59.340;18.040;2023-07-20T06:48:18;27.70;99.90
12130;DHT22;6128;59.340;18.040;2023-07-20T06:50:45;27.90;99.90
12130;DHT22;6128;59.340;18.040;2023-07-20T06:53:13;28.40;99.90
12130;DHT22;6128;59.340;18.040;2023-07-20T06:55:42;28.90;99.90
12130;DHT22;6128;59.340;18.040;2023-07-20T06:58:09;29.50;99.90
12130;DHT22;6128;59.340;18.040;2023-07-20T07:00:37;29.90;99.90
12130;DHT22;6128;59.340;18.040;2023-07-20T07:03:05;30.00;99.90
12130;DHT22;6128;59.340;18.040;2023-07-20T07:05:36;30.10;99.90
12130;DHT22;6128;59.340;18.040;2023-07-20T07:08:04;30.00;99.80
12130;DHT22;6128;59.340;18.040;2023-07-20T07:10:31;29.50;99.80
12130;DHT22;6128;59.340;18.040;2023-07-20T07:12:58;28.80;99.80
12130;DHT22;6128;59.340;18.040;2023-07-20T07:15:25;28.20;99.80
12130;DHT22;6128;59.340;18.040;2023-07-20T07:17:54;28.00;99.80
12130;DHT22;6128;59.340;18.040;2023-07-20T07:20:22;27.70;99.70
12130;DHT22;6128;59.340;18.040;2023-07-20T07:22:50;27.50;99.40
12130;DHT22;6128;59.340;18.040;2023-07-20T07:25:19;27.40;99.20
12130;DHT22;6128;59.340;18.040;2023-07-20T07:27:46;27.60;98.80
12130;DHT22;6128;59.340;18.040;2023-07-20T07:30:13;27.10;98.30
12130;DHT22;6128;59.340;18.040;2023-07-20T07:32:40;26.30;97.90
12130;DHT22;6128;59.340;18.040;2023-07-20T07:35:09;25.90;97.40
12130;DHT22;6128;59.340;18.040;2023-07-20T07:37:36;26.30;97.10
12130;DHT22;6128;59.340;18.040;2023-07-20T07:40:04;27.20;96.80
12130;DHT22;6128;59.340;18.040;2023-07-20T07:42:31;28.10;96.50
12130;DHT22;6128;59.340;18.040;2023-07-20T07:44:59;28.50;96.30
12130;DHT22;6128;59.340;18.040;2023-07-20T07:47:26;27.80;96.10
12130;DHT22;6128;59.340;18.040;2023-07-20T07:49:53;26.20;95.80
12130;DHT22;6128;59.340;18.040;2023-07-20T07:52:21;25.50;95.70
12130;DHT22;6128;59.340;18.040;2023-07-20T07:54:48;25.00;95.40
12130;DHT22;6128;59.340;18.040;2023-07-20T07:57:15;24.90;95.30
12130;DHT22;6128;59.340;18.040;2023-07-20T07:59:44;25.00;95.20
12130;DHT22;6128;59.340;18.040;2023-07-20T08:02:11;25.40;95.10
12130;DHT22;6128;59.340;18.040;2023-07-20T08:04:38;25.90;95.00
12130;DHT22;6128;59.340;18.040;2023-07-20T08:07:05;26.00;95.00
12130;DHT22;6128;59.340;18.040;2023-07-20T08:09:34;25.90;94.90
12130;DHT22;6128;59.340;18.040;2023-07-20T08:12:01;25.70;94.80
12130;DHT22;6128;59.340;18.040;2023-07-20T08:14:29;26.00;94.70
12130;DHT22;6128;59.340;18.040;2023-07-20T08:16:56;26.30;94.50
12130;DHT22;6128;59.340;18.040;2023-07-20T08:19:26;26.60;94.40
12130;DHT22;6128;59.340;18.040;2023-07-20T08:21:53;26.70;94.30
12130;DHT22;6128;59.340;18.040;2023-07-20T08:24:20;26.70;94.20
12130;DHT22;6128;59.340;18.040;2023-07-20T08:26:49;26.70;94.10
12130;DHT22;6128;59.340;18.040;2023-07-20T08:29:16;26.70;93.80
12130;DHT22;6128;59.340;18.040;2023-07-20T08:31:43;26.50;93.80
12130;DHT22;6128;59.340;18.040;2023-07-20T08:34:10;26.00;93.70
12130;DHT22;6128;59.340;18.040;2023-07-20T08:36:37;25.20;93.50
12130;DHT22;6128;59.340;18.040;2023-07-20T08:39:04;25.10;93.50
12130;DHT22;6128;59.340;18.040;2023-07-20T08:41:31;25.10;93.50
12130;DHT22;6128;59.340;18.040;2023-07-20T08:44:00;25.00;93.60
12130;DHT22;6128;59.340;18.040;2023-07-20T08:46:28;25.40;93.70
12130;DHT22;6128;59.340;18.040;2023-07-20T08:48:56;26.00;93.80
12130;DHT22;6128;59.340;18.040;2023-07-20T08:51:25;26.50;94.10
12130;DHT22;6128;59.340;18.040;2023-07-20T08:53:52;26.80;94.30
12130;DHT22;6128;59.340;18.040;2023-07-20T08:56:20;27.30;94.70
12130;DHT22;6128;59.340;18.040;2023-07-20T08:58:48;27.90;95.10
12130;DHT22;6128;59.340;18.040;2023-07-20T09:01:17;27.60;95.30
12130;DHT22;6128;59.340;18.040;2023-07-20T09:03:45;27.70;95.20
12130;DHT22;6128;59.340;18.040;2023-07-20T09:06:13;28.20;95.10
12130;DHT22;6128;59.340;18.040;2023-07-20T09:08:40;28.70;94.90
12130;DHT22;6128;59.340;18.040;2023-07-20T09:11:12;28.70;94.50
12130;DHT22;6128;59.340;18.040;2023-07-20T09:13:40;28.60;93.90
12130;DHT22;6128;59.340;18.040;2023-07-20T09:16:08;28.50;93.40
12130;DHT22;6128;59.340;18.040;2023-07-20T09:18:37;27.90;93.10
12130;DHT22;6128;59.340;18.040;2023-07-20T09:21:05;26.90;92.50
12130;DHT22;6128;59.340;18.040;2023-07-20T09:23:33;26.00;92.10
12130;DHT22;6128;59.340;18.040;2023-07-20T09:26:01;26.20;91.60
12130;DHT22;6128;59.340;18.040;2023-07-20T09:28:28;27.10;91.40
12130;DHT22;6128;59.340;18.040;2023-07-20T09:30:55;27.80;91.40
12130;DHT22;6128;59.340;18.040;2023-07-20T09:33:24;27.60;91.30
12130;DHT22;6128;59.340;18.040;2023-07-20T09:35:53;26.90;91.20
12130;DHT22;6128;59.340;18.040;2023-07-20T09:38:20;26.10;91.10
12130;DHT22;6128;59.340;18.040;2023-07-20T09:40:48;25.40;90.90
12130;DHT22;6128;59.340;18.040;2023-07-20T09:43:16;24.70;90.70
12130;DHT22;6128;59.340;18.040;2023-07-20T09:45:43;24.30;90.40
12130;DHT22;6128;59.340;18.040;2023-07-20T09:48:11;24.00;90.10
12130;DHT22;6128;59.340;18.040;2023-07-20T09:50:42;23.60;90.00
12130;DHT22;6128;59.340;18.040;2023-07-20T09:53:12;23.40;90.00
12130;DHT22;6128;59.340;18.040;2023-07-20T09:55:40;23.30;90.00
12130;DHT22;6128;59.340;18.040;2023-07-20T09:58:09;23.20;90.00
12130;DHT22;6128;59.340;18.040;2023-07-20T10:00:36;23.00;90.00
12130;DHT22;6128;59.340;18.040;2023-07-20T10:03:05;22.90;90.10
12130;DHT22;6128;59.340;18.040;2023-07-20T10:05:34;23.00;90.10
12130;DHT22;6128;59.340;18.040;2023-07-20T10:08:03;22.90;90.10
12130;DHT22;6128;59.340;18.040;2023-07-20T10:10:34;22.70;90.10
12130;DHT22;6128;59.340;18.040;2023-07-20T10:13:01;22.70;90.10
12130;DHT22;6128;59.340;18.040;2023-07-20T10:15:32;22.50;90.20
12130;DHT22;6128;59.340;18.040;2023-07-20T10:18:06;22.60;90.20
12130;DHT22;6128;59.340;18.040;2023-07-20T10:20:36;22.50;90.20
12130;DHT22;6128;59.340;18.040;2023-07-20T10:23:07;22.50;90.30
12130;DHT22;6128;59.340;18.040;2023-07-20T10:25:38;22.40;90.30
12130;DHT22;6128;59.340;18.040;2023-07-20T10:28:07;22.40;90.50
12130;DHT22;6128;59.340;18.040;2023-07-20T10:30:35;22.20;90.70
12130;DHT22;6128;59.340;18.040;2023-07-20T10:33:03;22.10;91.00
12130;DHT22;6128;59.340;18.040;2023-07-20T10:35:31;22.10;91.40
12130;DHT22;6128;59.340;18.040;2023-07-20T10:38:17;21.90;91.70
12130;DHT22;6128;59.340;18.040;2023-07-20T10:40:54;21.80;92.10
12130;DHT22;6128;59.340;18.040;2023-07-20T10:43:21;21.60;92.50
12130;DHT22;6128;59.340;18.040;2023-07-20T10:45:49;21.50;92.80
12130;DHT22;6128;59.340;18.040;2023-07-20T10:48:19;21.40;92.90
12130;DHT22;6128;59.340;18.040;2023-07-20T10:51:11;21.40;92.90
12130;DHT22;6128;59.340;18.040;2023-07-20T10:53:39;21.40;93.20
12130;DHT22;6128;59.340;18.040;2023-07-20T10:56:11;21.40;93.20
12130;DHT22;6128;59.340;18.040;2023-07-20T10:58:39;21.30;93.00
12130;DHT22;6128;59.340;18.040;2023-07-20T11:01:06;21.30;93.00
12130;DHT22;6128;59.340;18.040;2023-07-20T11:03:34;21.30;93.00
12130;DHT22;6128;59.340;18.040;2023-07-20T11:06:32;21.30;93.00
12130;DHT22;6128;59.340;18.040;2023-07-20T11:09:06;21.20;93.00
12130;DHT22;6128;59.340;18.040;2023-07-20T11:11:38;20.90;93.20
12130;DHT22;6128;59.340;18.040;2023-07-20T11:14:07;20.70;93.30
12130;DHT22;6128;59.340;18.040;2023-07-20T11:16:36;20.40;93.60
12130;DHT22;6128;59.340;18.040;2023-07-20T11:19:05;20.30;93.80
12130;DHT22;6128;59.340;18.040;2023-07-20T11:21:36;20.10;94.00
12130;DHT22;6128;59.340;18.040;2023-07-20T11:24:05;19.80;94.10
12130;DHT22;6128;59.340;18.040;2023-07-20T11:26:48;19.50;94.10
12130;DHT22;6128;59.340;18.040;2023-07-20T11:29:16;19.30;94.20
12130;DHT22;6128;59.340;18.040;2023-07-20T11:31:45;19.20;94.10
12130;DHT22;6128;59.340;18.040;2023-07-20T11:34:13;19.10;94.10
12130;DHT22;6128;59.340;18.040;2023-07-20T11:36:42;19.10;94.10
12130;DHT22;6128;59.340;18.040;2023-07-20T11:39:10;19.20;94.10
12130;DHT22;6128;59.340;18.040;2023-07-20T11:41:38;19.30;94.20
12130;DHT22;6128;59.340;18.040;2023-07-20T11:44:07;19.30;94.20
12130;DHT22;6128;59.340;18.040;2023-07-20T11:46:39;19.50;94.30
12130;DHT22;6128;59.340;18.040;2023-07-20T11:49:10;19.80;94.40
12130;DHT22;6128;59.340;18.040;2023-07-20T11:51:38;20.00;94.50
12130;DHT22;6128;59.340;18.040;2023-07-20T11:54:08;20.20;94.50
12130;DHT22;6128;59.340;18.040;2023-07-20T11:56:35;20.30;94.50
12130;DHT22;6128;59.340;18.040;2023-07-20T11:59:03;20.30;94.40
12130;DHT22;6128;59.340;18.040;2023-07-20T12:01:32;20.50;94.20
12130;DHT22;6128;59.340;18.040;2023-07-20T12:04:01;20.80;94.10
12130;DHT22;6128;59.340;18.040;2023-07-20T12:06:29;20.90;93.90
12130;DHT22;6128;59.340;18.040;2023-07-20T12:08:58;21.10;93.80
12130;DHT22;6128;59.340;18.040;2023-07-20T12:11:36;21.20;93.70
12130;DHT22;6128;59.340;18.040;2023-07-20T12:14:03;21.20;93.50
12130;DHT22;6128;59.340;18.040;2023-07-20T12:16:32;21.30;93.40
12130;DHT22;6128;59.340;18.040;2023-07-20T12:19:00;21.30;93.30
12130;DHT22;6128;59.340;18.040;2023-07-20T12:21:28;21.30;93.20
12130;DHT22;6128;59.340;18.040;2023-07-20T12:23:56;21.30;93.10
12130;DHT22;6128;59.340;18.040;2023-07-20T12:26:24;21.40;93.10
12130;DHT22;6128;59.340;18.040;2023-07-20T12:28:51;21.40;93.10
12130;DHT22;6128;59.340;18.040;2023-07-20T12:31:18;21.30;93.00
12130;DHT22;6128;59.340;18.040;2023-07-20T12:33:48;21.20;93.00
12130;DHT22;6128;59.340;18.040;2023-07-20T12:36:15;21.10;93.00
12130;DHT22;6128;59.340;18.040;2023-07-20T12:38:42;21.20;93.00
12130;DHT22;6128;59.340;18.040;2023-07-20T12:41:11;21.20;93.00
12130;DHT22;6128;59.340;18.040;2023-07-20T12:43:39;21.40;93.10
12130;DHT22;6128;59.340;18.040;2023-07-20T12:46:07;21.30;93.30
12130;DHT22;6128;59.340;18.040;2023-07-20T12:48:35;21.20;93.40
12130;DHT22;6128;59.340;18.040;2023-07-20T12:51:04;21.30;93.50
12130;DHT22;6128;59.340;18.040;2023-07-20T12:53:31;21.10;93.70
12130;DHT22;6128;59.340;18.040;2023-07-20T12:55:59;21.10;93.80
12130;DHT22;6128;59.340;18.040;2023-07-20T12:58:26;21.00;93.90
12130;DHT22;6128;59.340;18.040;2023-07-20T13:00:54;20.80;93.90
12130;DHT22;6128;59.340;18.040;2023-07-20T13:03:21;20.80;93.90
12130;DHT22;6128;59.340;18.040;2023-07-20T13:05:49;20.90;93.90
12130;DHT22;6128;59.340;18.040;2023-07-20T13:08:17;21.00;93.90
12130;DHT22;6128;59.340;18.040;2023-07-20T13:10:45;21.10;93.90
12130;DHT22;6128;59.340;18.040;2023-07-20T13:13:12;21.30;93.80
12130;DHT22;6128;59.340;18.040;2023-07-20T13:15:43;21.50;93.80
12130;DHT22;6128;59.340;18.040;2023-07-20T13:18:12;21.80;93.90
12130;DHT22;6128;59.340;18.040;2023-07-20T13:20:39;21.80;93.80
12130;DHT22;6128;59.340;18.040;2023-07-20T13:23:06;21.70;93.80
12130;DHT22;6128;59.340;18.040;2023-07-20T13:25:34;21.60;93.80
12130;DHT22;6128;59.340;18.040;2023-07-20T13:28:02;21.60;93.80
12130;DHT22;6128;59.340;18.040;2023-07-20T13:30:29;21.70;93.70
12130;DHT22;6128;59.340;18.040;2023-07-20T13:32:56;21.80;93.60
12130;DHT22;6128;59.340;18.040;2023-07-20T13:35:23;21.80;93.50
12130;DHT22;6128;59.340;18.040;2023-07-20T13:37:50;21.60;93.50
12130;DHT22;6128;59.340;18.040;2023-07-20T13:40:17;21.50;93.50
12130;DHT22;6128;59.340;18.040;2023-07-20T13:42:46;21.50;93.50
12130;DHT22;6128;59.340;18.040;2023-07-20T13:45:13;21.70;93.50
12130;DHT22;6128;59.340;18.040;2023-07-20T13:47:41;21.40;93.60
12130;DHT22;6128;59.340;18.040;2023-07-20T13:50:09;21.30;93.60
12130;DHT22;6128;59.340;18.040;2023-07-20T13:52:36;21.20;93.70
12130;DHT22;6128;59.340;18.040;2023-07-20T13:55:04;20.90;93.70
12130;DHT22;6128;59.340;18.040;2023-07-20T13:57:33;20.90;93.70
12130;DHT22;6128;59.340;18.040;2023-07-20T14:00:01;20.80;93.70
12130;DHT22;6128;59.340;18.040;2023-07-20T14:02:30;20.90;93.60
12130;DHT22;6128;59.340;18.040;2023-07-20T14:04:57;20.90;93.50
12130;DHT22;6128;59.340;18.040;2023-07-20T14:07:24;20.80;93.40
12130;DHT22;6128;59.340;18.040;2023-07-20T14:09:51;20.80;93.20
12130;DHT22;6128;59.340;18.040;2023-07-20T14:12:18;20.90;93.20
12130;DHT22;6128;59.340;18.040;2023-07-20T14:14:45;21.00;93.10
12130;DHT22;6128;59.340;18.040;2023-07-20T14:17:15;20.90;93.10
12130;DHT22;6128;59.340;18.040;2023-07-20T14:19:42;20.90;93.00
12130;DHT22;6128;59.340;18.040;2023-07-20T14:22:09;20.90;92.90
12130;DHT22;6128;59.340;18.040;2023-07-20T14:24:36;21.00;92.90
12130;DHT22;6128;59.340;18.040;2023-07-20T14:27:03;21.10;92.80
12130;DHT22;6128;59.340;18.040;2023-07-20T14:29:31;21.30;92.70
12130;DHT22;6128;59.340;18.040;2023-07-20T14:32:02;21.30;92.70
12130;DHT22;6128;59.340;18.040;2023-07-20T14:34:33;21.40;92.70
12130;DHT22;6128;59.340;18.040;2023-07-20T14:37:01;21.50;92.70
12130;DHT22;6128;59.340;18.040;2023-07-20T14:39:30;21.60;92.70
12130;DHT22;6128;59.340;18.040;2023-07-20T14:41:57;21.50;92.70
12130;DHT22;6128;59.340;18.040;2023-07-20T14:44:25;21.40;92.90
12130;DHT22;6128;59.340;18.040;2023-07-20T14:46:52;21.30;92.90
12130;DHT22;6128;59.340;18.040;2023-07-20T14:49:19;21.20;93.00
12130;DHT22;6128;59.340;18.040;2023-07-20T14:51:47;21.20;93.10
12130;DHT22;6128;59.340;18.040;2023-07-20T14:54:15;21.20;93.20
12130;DHT22;6128;59.340;18.040;2023-07-20T14:56:49;21.30;93.20
12130;DHT22;6128;59.340;18.040;2023-07-20T14:59:16;21.10;93.30
12130;DHT22;6128;59.340;18.040;2023-07-20T15:01:44;20.90;93.30
12130;DHT22;6128;59.340;18.040;2023-07-20T15:04:12;21.00;93.40
12130;DHT22;6128;59.340;18.040;2023-07-20T15:06:39;21.00;93.50
12130;DHT22;6128;59.340;18.040;2023-07-20T15:09:08;20.90;93.60
12130;DHT22;6128;59.340;18.040;2023-07-20T15:11:36;20.70;93.70
12130;DHT22;6128;59.340;18.040;2023-07-20T15:14:03;20.50;93.90
12130;DHT22;6128;59.340;18.040;2023-07-20T15:16:31;20.30;94.10
12130;DHT22;6128;59.340;18.040;2023-07-20T15:18:58;19.90;94.30
12130;DHT22;6128;59.340;18.040;2023-07-20T15:21:25;19.70;94.60
12130;DHT22;6128;59.340;18.040;2023-07-20T15:23:56;19.60;94.80
12130;DHT22;6128;59.340;18.040;2023-07-20T15:26:24;19.60;95.00
12130;DHT22;6128;59.340;18.040;2023-07-20T15:28:52;19.50;95.20
12130;DHT22;6128;59.340;18.040;2023-07-20T15:31:19;19.50;95.40
12130;DHT22;6128;59.340;18.040;2023-07-20T15:33:46;19.60;95.50
12130;DHT22;6128;59.340;18.040;2023-07-20T15:36:14;19.70;95.50
12130;DHT22;6128;59.340;18.040;2023-07-20T15:38:41;19.80;95.50